sensor_id;sensor_type;location;lat;lon;timestamp;P1;durP1;ratioP1;P2;durP2;ratioP2
18449;SDS011;9354;50.194;7.690;2022-07-23T00:00:50;14.10;;;8.47;;
18449;SDS011;9354;50.194;7.690;2022-07-23T00:03:17;12.93;;;7.30;;
18449;SDS011;9354;50.194;7.690;2022-07-23T00:05:46;13.83;;;8.47;;
18449;SDS011;9354;50.194;7.690;2022-07-23T00:08:13;11.67;;;7.47;;
18449;SDS011;9354;50.194;7.690;2022-07-23T00:10:41;14.03;;;8.10;;
18449;SDS011;9354;50.194;7.690;2022-07-23T00:13:08;12.73;;;8.27;;
18449;SDS011;9354;50.194;7.690;2022-07-23T00:15:36;12.30;;;7.80;;
18449;SDS011;9354;50.194;7.690;2022-07-23T00:18:03;17.27;;;8.70;;
18449;SDS011;9354;50.194;7.690;2022-07-23T00:20:31;14.27;;;7.83;;
18449;SDS011;9354;50.194;7.690;2022-07-23T00:22:59;13.80;;;8.10;;
18449;SDS011;9354;50.194;7.690;2022-07-23T00:25:27;13.70;;;8.07;;
18449;SDS011;9354;50.194;7.690;2022-07-23T00:27:54;14.07;;;8.07;;
18449;SDS011;9354;50.194;7.690;2022-07-23T00:30:22;13.27;;;8.53;;
18449;SDS011;9354;50.194;7.690;2022-07-23T00:32:50;11.73;;;7.23;;
18449;SDS011;9354;50.194;7.690;2022-07-23T00:35:19;13.67;;;7.37;;
18449;SDS011;9354;50.194;7.690;2022-07-23T00:37:47;19.77;;;8.30;;
18449;SDS011;9354;50.194;7.690;2022-07-23T00:40:16;13.80;;;8.40;;
18449;SDS011;9354;50.194;7.690;2022-07-23T00:42:44;17.13;;;8.37;;
18449;SDS011;9354;50.194;7.690;2022-07-23T00:45:11;18.13;;;8.70;;
18449;SDS011;9354;50.194;7.690;2022-07-23T00:47:39;17.23;;;8.90;;
18449;SDS011;9354;50.194;7.690;2022-07-23T00:50:07;16.37;;;9.63;;
18449;SDS011;9354;50.194;7.690;2022-07-23T00:52:36;18.20;;;8.47;;
18449;SDS011;9354;50.194;7.690;2022-07-23T00:55:04;15.77;;;8.63;;
18449;SDS011;9354;50.194;7.690;2022-07-23T00:57:34;15.27;;;9.17;;
18449;SDS011;9354;50.194;7.690;2022-07-23T01:00:03;19.10;;;9.23;;
18449;SDS011;9354;50.194;7.690;2022-07-23T01:02:32;21.17;;;9.63;;
18449;SDS011;9354;50.194;7.690;2022-07-23T01:04:59;19.60;;;9.27;;
18449;SDS011;9354;50.194;7.690;2022-07-23T01:07:27;16.00;;;9.73;;
18449;SDS011;9354;50.194;7.690;2022-07-23T01:09:55;17.67;;;10.03;;
18449;SDS011;9354;50.194;7.690;2022-07-23T01:12:22;18.13;;;9.67;;
18449;SDS011;9354;50.194;7.690;2022-07-23T01:14:54;18.03;;;9.67;;
18449;SDS011;9354;50.194;7.690;2022-07-23T01:17:22;19.00;;;9.93;;
18449;SDS011;9354;50.194;7.690;2022-07-23T01:19:50;18.03;;;9.70;;
18449;SDS011;9354;50.194;7.690;2022-07-23T01:22:18;18.50;;;10.70;;
18449;SDS011;9354;50.194;7.690;2022-07-23T01:24:47;18.37;;;9.73;;
18449;SDS011;9354;50.194;7.690;2022-07-23T01:27:14;18.23;;;9.57;;
18449;SDS011;9354;50.194;7.690;2022-07-23T01:29:43;19.60;;;10.27;;
18449;SDS011;9354;50.194;7.690;2022-07-23T01:32:10;16.50;;;9.43;;
18449;SDS011;9354;50.194;7.690;2022-07-23T01:34:37;16.13;;;9.27;;
18449;SDS011;9354;50.194;7.690;2022-07-23T01:37:06;16.27;;;9.70;;
18449;SDS011;9354;50.194;7.690;2022-07-23T01:39:33;20.47;;;10.00;;
18449;SDS011;9354;50.194;7.690;2022-07-23T01:42:02;23.13;;;10.30;;
18449;SDS011;9354;50.194;7.690;2022-07-23T01:44:30;17.33;;;9.33;;
18449;SDS011;9354;50.194;7.690;2022-07-23T01:46:57;18.27;;;10.30;;
18449;SDS011;9354;50.194;7.690;2022-07-23T01:49:24;19.33;;;9.87;;
18449;SDS011;9354;50.194;7.690;2022-07-23T01:51:52;16.33;;;10.13;;
18449;SDS011;9354;50.194;7.690;2022-07-23T01:54:33;20.47;;;10.37;;
18449;SDS011;9354;50.194;7.690;2022-07-23T01:57:00;16.83;;;9.90;;
18449;SDS011;9354;50.194;7.690;2022-07-23T01:59:29;18.80;;;10.13;;
18449;SDS011;9354;50.194;7.690;2022-07-23T02:01:57;16.70;;;10.07;;
18449;SDS011;9354;50.194;7.690;2022-07-23T02:04:25;19.13;;;10.47;;
18449;SDS011;9354;50.194;7.690;2022-07-23T02:06:52;16.90;;;10.33;;
18449;SDS011;9354;50.194;7.690;2022-07-23T02:09:20;22.57;;;11.40;;
18449;SDS011;9354;50.194;7.690;2022-07-23T02:11:48;18.83;;;10.40;;
18449;SDS011;9354;50.194;7.690;2022-07-23T02:14:16;20.10;;;11.07;;
18449;SDS011;9354;50.194;7.690;2022-07-23T02:16:44;26.03;;;10.70;;
18449;SDS011;9354;50.194;7.690;2022-07-23T02:19:11;21.83;;;10.90;;
18449;SDS011;9354;50.194;7.690;2022-07-23T02:21:39;19.93;;;10.67;;
18449;SDS011;9354;50.194;7.690;2022-07-23T02:24:06;18.73;;;10.43;;
18449;SDS011;9354;50.194;7.690;2022-07-23T02:26:34;19.43;;;11.00;;
18449;SDS011;9354;50.194;7.690;2022-07-23T02:29:01;19.13;;;10.17;;
18449;SDS011;9354;50.194;7.690;2022-07-23T02:31:30;18.50;;;10.23;;
18449;SDS011;9354;50.194;7.690;2022-07-23T02:33:57;19.60;;;10.90;;
18449;SDS011;9354;50.194;7.690;2022-07-23T02:36:25;19.20;;;10.23;;
18449;SDS011;9354;50.194;7.690;2022-07-23T02:38:52;19.90;;;11.17;;
18449;SDS011;9354;50.194;7.690;2022-07-23T02:41:20;21.17;;;10.40;;
18449;SDS011;9354;50.194;7.690;2022-07-23T02:43:47;21.67;;;10.50;;
18449;SDS011;9354;50.194;7.690;2022-07-23T02:46:15;21.90;;;10.77;;
18449;SDS011;9354;50.194;7.690;2022-07-23T02:48:43;20.23;;;11.63;;
18449;SDS011;9354;50.194;7.690;2022-07-23T02:51:13;19.97;;;10.60;;
18449;SDS011;9354;50.194;7.690;2022-07-23T02:53:41;20.50;;;10.70;;
18449;SDS011;9354;50.194;7.690;2022-07-23T02:56:08;21.97;;;10.77;;
18449;SDS011;9354;50.194;7.690;2022-07-23T02:58:36;21.47;;;10.67;;
18449;SDS011;9354;50.194;7.690;2022-07-23T03:01:03;20.47;;;11.00;;
18449;SDS011;9354;50.194;7.690;2022-07-23T03:03:31;20.10;;;10.90;;
18449;SDS011;9354;50.194;7.690;2022-07-23T03:05:59;19.87;;;11.03;;
18449;SDS011;9354;50.194;7.690;2022-07-23T03:08:27;20.23;;;11.23;;
18449;SDS011;9354;50.194;7.690;2022-07-23T03:10:54;20.07;;;11.63;;
18449;SDS011;9354;50.194;7.690;2022-07-23T03:13:22;18.27;;;10.47;;
18449;SDS011;9354;50.194;7.690;2022-07-23T03:15:49;23.97;;;11.53;;
18449;SDS011;9354;50.194;7.690;2022-07-23T03:18:17;19.07;;;11.20;;
18449;SDS011;9354;50.194;7.690;2022-07-23T03:20:44;21.47;;;10.80;;
18449;SDS011;9354;50.194;7.690;2022-07-23T03:23:13;19.77;;;11.13;;
18449;SDS011;9354;50.194;7.690;2022-07-23T03:25:40;21.57;;;11.20;;
18449;SDS011;9354;50.194;7.690;2022-07-23T03:28:08;20.80;;;11.30;;
18449;SDS011;9354;50.194;7.690;2022-07-23T03:30:35;23.50;;;11.00;;
18449;SDS011;9354;50.194;7.690;2022-07-23T03:33:02;17.20;;;10.20;;
18449;SDS011;9354;50.194;7.690;2022-07-23T03:35:30;19.00;;;9.90;;
18449;SDS011;9354;50.194;7.690;2022-07-23T03:37:57;16.37;;;10.10;;
18449;SDS011;9354;50.194;7.690;2022-07-23T03:40:26;16.40;;;10.07;;
18449;SDS011;9354;50.194;7.690;2022-07-23T03:42:53;18.03;;;10.67;;
18449;SDS011;9354;50.194;7.690;2022-07-23T03:45:20;20.90;;;10.37;;
18449;SDS011;9354;50.194;7.690;2022-07-23T03:47:48;21.43;;;11.00;;
18449;SDS011;9354;50.194;7.690;2022-07-23T03:50:15;20.90;;;10.63;;
18449;SDS011;9354;50.194;7.690;2022-07-23T03:52:43;19.53;;;10.43;;
18449;SDS011;9354;50.194;7.690;2022-07-23T03:55:10;20.93;;;10.77;;
18449;SDS011;9354;50.194;7.690;2022-07-23T03:57:39;23.23;;;11.53;;
18449;SDS011;9354;50.194;7.690;2022-07-23T04:00:07;15.57;;;8.70;;
18449;SDS011;9354;50.194;7.690;2022-07-23T04:02:36;23.40;;;11.10;;
18449;SDS011;9354;50.194;7.690;2022-07-23T04:05:04;19.90;;;10.00;;
18449;SDS011;9354;50.194;7.690;2022-07-23T04:07:32;19.63;;;10.63;;
18449;SDS011;9354;50.194;7.690;2022-07-23T04:10:00;22.47;;;10.57;;
18449;SDS011;9354;50.194;7.690;2022-07-23T04:12:27;20.00;;;9.67;;
18449;SDS011;9354;50.194;7.690;2022-07-23T04:14:56;21.40;;;10.13;;
18449;SDS011;9354;50.194;7.690;2022-07-23T04:17:23;18.60;;;10.30;;
18449;SDS011;9354;50.194;7.690;2022-07-23T04:19:51;16.93;;;9.93;;
18449;SDS011;9354;50.194;7.690;2022-07-23T04:22:18;19.07;;;10.27;;
18449;SDS011;9354;50.194;7.690;2022-07-23T04:24:45;22.40;;;10.57;;
18449;SDS011;9354;50.194;7.690;2022-07-23T04:27:13;17.60;;;9.83;;
18449;SDS011;9354;50.194;7.690;2022-07-23T04:29:40;20.43;;;9.37;;
18449;SDS011;9354;50.194;7.690;2022-07-23T04:32:10;19.57;;;9.93;;
18449;SDS011;9354;50.194;7.690;2022-07-23T04:34:37;17.77;;;9.50;;
18449;SDS011;9354;50.194;7.690;2022-07-23T04:37:05;19.60;;;9.90;;
18449;SDS011;9354;50.194;7.690;2022-07-23T04:39:32;19.03;;;10.17;;
18449;SDS011;9354;50.194;7.690;2022-07-23T04:42:00;19.63;;;9.93;;
18449;SDS011;9354;50.194;7.690;2022-07-23T04:44:27;18.57;;;9.43;;
18449;SDS011;9354;50.194;7.690;2022-07-23T04:46:54;19.87;;;10.27;;
18449;SDS011;9354;50.194;7.690;2022-07-23T04:49:23;18.53;;;10.47;;
18449;SDS011;9354;50.194;7.690;2022-07-23T04:51:50;18.53;;;10.60;;
18449;SDS011;9354;50.194;7.690;2022-07-23T04:54:18;20.80;;;11.07;;
18449;SDS011;9354;50.194;7.690;2022-07-23T04:56:45;18.03;;;10.17;;
18449;SDS011;9354;50.194;7.690;2022-07-23T04:59:13;21.73;;;9.63;;
18449;SDS011;9354;50.194;7.690;2022-07-23T05:01:40;19.77;;;9.97;;
18449;SDS011;9354;50.194;7.690;2022-07-23T05:04:08;20.87;;;11.13;;
18449;SDS011;9354;50.194;7.690;2022-07-23T05:06:37;21.47;;;10.80;;
18449;SDS011;9354;50.194;7.690;2022-07-23T05:09:04;21.67;;;10.00;;
18449;SDS011;9354;50.194;7.690;2022-07-23T05:11:31;17.87;;;10.23;;
18449;SDS011;9354;50.194;7.690;2022-07-23T05:13:59;19.67;;;10.20;;
18449;SDS011;9354;50.194;7.690;2022-07-23T05:16:26;18.70;;;10.00;;
18449;SDS011;9354;50.194;7.690;2022-07-23T05:18:54;26.30;;;11.27;;
18449;SDS011;9354;50.194;7.690;2022-07-23T05:21:21;17.60;;;10.20;;
18449;SDS011;9354;50.194;7.690;2022-07-23T05:23:50;25.70;;;11.07;;
18449;SDS011;9354;50.194;7.690;2022-07-23T05:26:17;18.73;;;10.33;;
18449;SDS011;9354;50.194;7.690;2022-07-23T05:28:44;19.43;;;10.80;;
18449;SDS011;9354;50.194;7.690;2022-07-23T05:31:12;18.10;;;9.80;;
18449;SDS011;9354;50.194;7.690;2022-07-23T05:33:39;18.33;;;10.17;;
18449;SDS011;9354;50.194;7.690;2022-07-23T05:36:07;26.70;;;11.30;;
18449;SDS011;9354;50.194;7.690;2022-07-23T05:38:34;19.90;;;10.23;;
18449;SDS011;9354;50.194;7.690;2022-07-23T05:41:03;16.43;;;10.43;;
18449;SDS011;9354;50.194;7.690;2022-07-23T05:43:31;18.30;;;9.33;;
18449;SDS011;9354;50.194;7.690;2022-07-23T05:45:58;21.73;;;10.20;;
18449;SDS011;9354;50.194;7.690;2022-07-23T05:48:26;18.87;;;10.90;;
18449;SDS011;9354;50.194;7.690;2022-07-23T05:50:53;19.47;;;10.20;;
18449;SDS011;9354;50.194;7.690;2022-07-23T05:53:20;20.20;;;9.87;;
18449;SDS011;9354;50.194;7.690;2022-07-23T05:55:48;21.60;;;10.03;;
18449;SDS011;9354;50.194;7.690;2022-07-23T05:58:17;19.63;;;10.93;;
18449;SDS011;9354;50.194;7.690;2022-07-23T06:00:44;18.57;;;10.27;;
18449;SDS011;9354;50.194;7.690;2022-07-23T06:03:12;19.80;;;11.13;;
18449;SDS011;9354;50.194;7.690;2022-07-23T06:05:39;20.83;;;10.27;;
18449;SDS011;9354;50.194;7.690;2022-07-23T06:08:07;21.07;;;10.53;;
18449;SDS011;9354;50.194;7.690;2022-07-23T06:10:34;21.73;;;10.50;;
18449;SDS011;9354;50.194;7.690;2022-07-23T06:13:02;18.40;;;10.33;;
18449;SDS011;9354;50.194;7.690;2022-07-23T06:15:30;23.17;;;11.27;;
18449;SDS011;9354;50.194;7.690;2022-07-23T06:17:58;15.83;;;10.27;;
18449;SDS011;9354;50.194;7.690;2022-07-23T06:20:25;16.70;;;9.83;;
18449;SDS011;9354;50.194;7.690;2022-07-23T06:22:53;19.23;;;10.43;;
18449;SDS011;9354;50.194;7.690;2022-07-23T06:25:20;19.13;;;9.80;;
18449;SDS011;9354;50.194;7.690;2022-07-23T06:27:47;17.27;;;9.63;;
18449;SDS011;9354;50.194;7.690;2022-07-23T06:30:15;20.77;;;10.00;;
18449;SDS011;9354;50.194;7.690;2022-07-23T06:32:45;15.93;;;8.97;;
18449;SDS011;9354;50.194;7.690;2022-07-23T06:35:13;18.47;;;9.27;;
18449;SDS011;9354;50.194;7.690;2022-07-23T06:37:40;18.80;;;10.07;;
18449;SDS011;9354;50.194;7.690;2022-07-23T06:40:08;20.77;;;10.73;;
18449;SDS011;9354;50.194;7.690;2022-07-23T06:42:36;23.30;;;10.43;;
18449;SDS011;9354;50.194;7.690;2022-07-23T06:45:05;20.47;;;9.80;;
18449;SDS011;9354;50.194;7.690;2022-07-23T06:47:33;19.93;;;10.10;;
18449;SDS011;9354;50.194;7.690;2022-07-23T06:50:02;19.80;;;9.37;;
18449;SDS011;9354;50.194;7.690;2022-07-23T06:52:30;15.53;;;9.27;;
18449;SDS011;9354;50.194;7.690;2022-07-23T06:54:57;15.60;;;9.13;;
18449;SDS011;9354;50.194;7.690;2022-07-23T06:57:25;16.73;;;9.40;;
18449;SDS011;9354;50.194;7.690;2022-07-23T06:59:52;14.07;;;8.00;;
18449;SDS011;9354;50.194;7.690;2022-07-23T07:02:20;13.77;;;8.20;;
18449;SDS011;9354;50.194;7.690;2022-07-23T07:04:47;17.00;;;9.17;;
18449;SDS011;9354;50.194;7.690;2022-07-23T07:07:16;14.57;;;7.77;;
18449;SDS011;9354;50.194;7.690;2022-07-23T07:09:44;15.80;;;8.37;;
18449;SDS011;9354;50.194;7.690;2022-07-23T07:12:11;15.33;;;8.10;;
18449;SDS011;9354;50.194;7.690;2022-07-23T07:14:38;14.40;;;7.60;;
18449;SDS011;9354;50.194;7.690;2022-07-23T07:17:06;11.10;;;6.83;;
18449;SDS011;9354;50.194;7.690;2022-07-23T07:19:33;10.07;;;5.90;;
18449;SDS011;9354;50.194;7.690;2022-07-23T07:22:02;11.93;;;5.57;;
18449;SDS011;9354;50.194;7.690;2022-07-23T07:24:31;10.83;;;5.73;;
18449;SDS011;9354;50.194;7.690;2022-07-23T07:26:58;7.73;;;5.07;;
18449;SDS011;9354;50.194;7.690;2022-07-23T07:29:25;13.43;;;5.80;;
18449;SDS011;9354;50.194;7.690;2022-07-23T07:31:53;11.30;;;5.90;;
18449;SDS011;9354;50.194;7.690;2022-07-23T07:34:21;10.37;;;6.03;;
18449;SDS011;9354;50.194;7.690;2022-07-23T07:36:48;9.30;;;5.90;;
18449;SDS011;9354;50.194;7.690;2022-07-23T07:39:16;10.43;;;6.77;;
18449;SDS011;9354;50.194;7.690;2022-07-23T07:41:45;12.70;;;7.17;;
18449;SDS011;9354;50.194;7.690;2022-07-23T07:44:12;13.93;;;7.63;;
18449;SDS011;9354;50.194;7.690;2022-07-23T07:46:39;13.63;;;7.87;;
18449;SDS011;9354;50.194;7.690;2022-07-23T07:49:07;13.00;;;7.50;;
18449;SDS011;9354;50.194;7.690;2022-07-23T07:51:34;11.87;;;6.87;;
18449;SDS011;9354;50.194;7.690;2022-07-23T07:54:02;13.33;;;7.80;;
18449;SDS011;9354;50.194;7.690;2022-07-23T07:56:29;14.27;;;7.47;;
18449;SDS011;9354;50.194;7.690;2022-07-23T07:58:58;16.97;;;8.50;;
18449;SDS011;9354;50.194;7.690;2022-07-23T08:01:26;13.03;;;7.10;;
18449;SDS011;9354;50.194;7.690;2022-07-23T08:03:53;11.60;;;6.80;;
18449;SDS011;9354;50.194;7.690;2022-07-23T08:06:21;11.53;;;6.70;;
18449;SDS011;9354;50.194;7.690;2022-07-23T08:08:48;11.73;;;6.73;;
18449;SDS011;9354;50.194;7.690;2022-07-23T08:11:16;15.90;;;7.57;;
18449;SDS011;9354;50.194;7.690;2022-07-23T08:13:43;13.73;;;8.00;;
18449;SDS011;9354;50.194;7.690;2022-07-23T08:16:12;18.10;;;7.67;;
18449;SDS011;9354;50.194;7.690;2022-07-23T08:18:39;13.90;;;8.30;;
18449;SDS011;9354;50.194;7.690;2022-07-23T08:21:07;12.00;;;7.67;;
18449;SDS011;9354;50.194;7.690;2022-07-23T08:23:34;19.30;;;7.57;;
18449;SDS011;9354;50.194;7.690;2022-07-23T08:26:02;15.60;;;7.57;;
18449;SDS011;9354;50.194;7.690;2022-07-23T08:28:29;14.67;;;7.60;;
18449;SDS011;9354;50.194;7.690;2022-07-23T08:30:58;13.00;;;7.63;;
18449;SDS011;9354;50.194;7.690;2022-07-23T08:33:27;14.03;;;7.23;;
18449;SDS011;9354;50.194;7.690;2022-07-23T08:35:55;12.87;;;7.20;;
18449;SDS011;9354;50.194;7.690;2022-07-23T08:38:22;14.03;;;7.37;;
18449;SDS011;9354;50.194;7.690;2022-07-23T08:40:51;15.50;;;8.40;;
18449;SDS011;9354;50.194;7.690;2022-07-23T08:43:20;12.63;;;7.40;;
18449;SDS011;9354;50.194;7.690;2022-07-23T08:45:50;12.43;;;7.43;;
18449;SDS011;9354;50.194;7.690;2022-07-23T08:48:19;15.47;;;7.37;;
18449;SDS011;9354;50.194;7.690;2022-07-23T08:50:50;11.93;;;7.03;;
18449;SDS011;9354;50.194;7.690;2022-07-23T08:53:20;14.37;;;7.80;;
18449;SDS011;9354;50.194;7.690;2022-07-23T08:55:49;12.77;;;7.50;;
18449;SDS011;9354;50.194;7.690;2022-07-23T08:58:18;12.03;;;7.03;;
18449;SDS011;9354;50.194;7.690;2022-07-23T09:00:46;11.77;;;6.70;;
18449;SDS011;9354;50.194;7.690;2022-07-23T09:03:15;11.27;;;7.23;;
18449;SDS011;9354;50.194;7.690;2022-07-23T09:05:44;10.60;;;6.60;;
18449;SDS011;9354;50.194;7.690;2022-07-23T09:08:13;9.77;;;5.97;;
18449;SDS011;9354;50.194;7.690;2022-07-23T09:10:45;15.93;;;7.17;;
18449;SDS011;9354;50.194;7.690;2022-07-23T09:16:13;10.87;;;6.90;;
18449;SDS011;9354;50.194;7.690;2022-07-23T09:18:43;14.13;;;7.23;;
18449;SDS011;9354;50.194;7.690;2022-07-23T09:21:16;9.37;;;6.47;;
18449;SDS011;9354;50.194;7.690;2022-07-23T09:23:50;11.43;;;6.73;;
18449;SDS011;9354;50.194;7.690;2022-07-23T09:26:21;13.10;;;6.77;;
18449;SDS011;9354;50.194;7.690;2022-07-23T09:28:56;13.73;;;7.23;;
18449;SDS011;9354;50.194;7.690;2022-07-23T09:31:27;11.60;;;7.27;;
18449;SDS011;9354;50.194;7.690;2022-07-23T09:34:06;10.27;;;6.97;;
18449;SDS011;9354;50.194;7.690;2022-07-23T09:36:35;13.60;;;7.30;;
18449;SDS011;9354;50.194;7.690;2022-07-23T09:39:04;14.57;;;6.83;;
18449;SDS011;9354;50.194;7.690;2022-07-23T09:41:40;13.87;;;6.67;;
18449;SDS011;9354;50.194;7.690;2022-07-23T09:44:09;10.20;;;7.10;;
18449;SDS011;9354;50.194;7.690;2022-07-23T09:46:39;10.40;;;6.10;;
18449;SDS011;9354;50.194;7.690;2022-07-23T09:49:11;10.33;;;6.33;;
18449;SDS011;9354;50.194;7.690;2022-07-23T09:51:44;6.43;;;4.60;;
18449;SDS011;9354;50.194;7.690;2022-07-23T09:57:09;10.63;;;5.77;;
18449;SDS011;9354;50.194;7.690;2022-07-23T09:59:40;7.60;;;5.37;;
18449;SDS011;9354;50.194;7.690;2022-07-23T10:02:10;13.30;;;5.53;;
18449;SDS011;9354;50.194;7.690;2022-07-23T10:04:38;9.97;;;5.50;;
18449;SDS011;9354;50.194;7.690;2022-07-23T10:07:07;8.47;;;5.40;;
18449;SDS011;9354;50.194;7.690;2022-07-23T10:09:36;9.53;;;5.50;;
18449;SDS011;9354;50.194;7.690;2022-07-23T10:12:09;8.73;;;5.57;;
18449;SDS011;9354;50.194;7.690;2022-07-23T10:14:50;9.00;;;5.37;;
18449;SDS011;9354;50.194;7.690;2022-07-23T10:17:17;9.67;;;6.07;;
18449;SDS011;9354;50.194;7.690;2022-07-23T10:19:45;6.03;;;4.70;;
18449;SDS011;9354;50.194;7.690;2022-07-23T10:22:13;8.23;;;4.63;;
18449;SDS011;9354;50.194;7.690;2022-07-23T10:24:52;7.13;;;4.60;;
18449;SDS011;9354;50.194;7.690;2022-07-23T10:27:31;8.60;;;4.53;;
18449;SDS011;9354;50.194;7.690;2022-07-23T10:30:19;6.53;;;4.77;;
18449;SDS011;9354;50.194;7.690;2022-07-23T10:32:55;6.57;;;4.80;;
18449;SDS011;9354;50.194;7.690;2022-07-23T10:35:33;7.10;;;4.67;;
18449;SDS011;9354;50.194;7.690;2022-07-23T10:38:07;8.43;;;4.83;;
18449;SDS011;9354;50.194;7.690;2022-07-23T10:40:52;7.00;;;4.37;;
18449;SDS011;9354;50.194;7.690;2022-07-23T10:43:22;6.83;;;4.47;;
18449;SDS011;9354;50.194;7.690;2022-07-23T10:45:49;6.90;;;4.40;;
18449;SDS011;9354;50.194;7.690;2022-07-23T10:48:18;8.33;;;4.60;;
18449;SDS011;9354;50.194;7.690;2022-07-23T10:51:05;6.73;;;4.30;;
18449;SDS011;9354;50.194;7.690;2022-07-23T10:53:52;6.40;;;4.40;;
18449;SDS011;9354;50.194;7.690;2022-07-23T10:59:31;7.30;;;4.03;;
18449;SDS011;9354;50.194;7.690;2022-07-23T11:02:23;6.60;;;3.90;;
18449;SDS011;9354;50.194;7.690;2022-07-23T11:04:52;6.87;;;4.67;;
18449;SDS011;9354;50.194;7.690;2022-07-23T11:07:19;7.50;;;4.50;;
18449;SDS011;9354;50.194;7.690;2022-07-23T11:09:47;7.40;;;4.50;;
18449;SDS011;9354;50.194;7.690;2022-07-23T11:12:33;7.63;;;4.53;;
18449;SDS011;9354;50.194;7.690;2022-07-23T11:15:05;16.17;;;5.27;;
18449;SDS011;9354;50.194;7.690;2022-07-23T11:17:36;9.23;;;4.77;;
18449;SDS011;9354;50.194;7.690;2022-07-23T11:20:19;9.33;;;4.40;;
18449;SDS011;9354;50.194;7.690;2022-07-23T11:22:49;7.23;;;4.20;;
18449;SDS011;9354;50.194;7.690;2022-07-23T11:25:34;8.40;;;5.17;;
18449;SDS011;9354;50.194;7.690;2022-07-23T11:28:09;5.73;;;4.53;;
18449;SDS011;9354;50.194;7.690;2022-07-23T11:30:38;7.40;;;4.30;;
18449;SDS011;9354;50.194;7.690;2022-07-23T11:33:19;8.98;;;4.35;;
18449;SDS011;9354;50.194;7.690;2022-07-23T11:35:49;7.15;;;4.72;;
18449;SDS011;9354;50.194;7.690;2022-07-23T11:38:26;7.38;;;4.40;;
18449;SDS011;9354;50.194;7.690;2022-07-23T11:40:54;7.82;;;4.00;;
18449;SDS011;9354;50.194;7.690;2022-07-23T11:43:23;7.57;;;3.90;;
18449;SDS011;9354;50.194;7.690;2022-07-23T11:45:52;6.78;;;3.78;;
18449;SDS011;9354;50.194;7.690;2022-07-23T11:48:22;7.15;;;4.18;;
18449;SDS011;9354;50.194;7.690;2022-07-23T11:50:51;7.47;;;4.25;;
18449;SDS011;9354;50.194;7.690;2022-07-23T11:53:23;7.50;;;3.75;;
18449;SDS011;9354;50.194;7.690;2022-07-23T11:55:50;11.80;;;4.15;;
18449;SDS011;9354;50.194;7.690;2022-07-23T11:58:18;6.45;;;4.10;;
18449;SDS011;9354;50.194;7.690;2022-07-23T12:00:46;6.78;;;4.50;;
18449;SDS011;9354;50.194;7.690;2022-07-23T12:03:13;6.07;;;3.97;;
18449;SDS011;9354;50.194;7.690;2022-07-23T12:05:42;6.25;;;3.85;;
18449;SDS011;9354;50.194;7.690;2022-07-23T12:08:10;4.65;;;3.05;;
18449;SDS011;9354;50.194;7.690;2022-07-23T12:10:37;5.03;;;3.53;;
18449;SDS011;9354;50.194;7.690;2022-07-23T12:13:08;5.00;;;2.90;;
18449;SDS011;9354;50.194;7.690;2022-07-23T12:15:37;10.70;;;3.47;;
18449;SDS011;9354;50.194;7.690;2022-07-23T12:18:08;6.45;;;3.25;;
18449;SDS011;9354;50.194;7.690;2022-07-23T12:20:38;5.97;;;3.67;;
18449;SDS011;9354;50.194;7.690;2022-07-23T12:23:09;4.65;;;3.50;;
18449;SDS011;9354;50.194;7.690;2022-07-23T12:25:38;5.68;;;3.25;;
18449;SDS011;9354;50.194;7.690;2022-07-23T12:28:08;6.82;;;3.42;;
18449;SDS011;9354;50.194;7.690;2022-07-23T12:30:38;5.80;;;2.90;;
18449;SDS011;9354;50.194;7.690;2022-07-23T12:33:07;4.10;;;3.10;;
18449;SDS011;9354;50.194;7.690;2022-07-23T12:35:36;3.80;;;2.78;;
18449;SDS011;9354;50.194;7.690;2022-07-23T12:38:07;6.20;;;3.10;;
18449;SDS011;9354;50.194;7.690;2022-07-23T12:40:42;4.22;;;3.25;;
18449;SDS011;9354;50.194;7.690;2022-07-23T12:43:11;5.32;;;2.92;;
18449;SDS011;9354;50.194;7.690;2022-07-23T12:45:46;4.00;;;2.92;;
18449;SDS011;9354;50.194;7.690;2022-07-23T12:48:16;4.50;;;2.80;;
18449;SDS011;9354;50.194;7.690;2022-07-23T12:50:49;5.13;;;3.40;;
18449;SDS011;9354;50.194;7.690;2022-07-23T12:53:29;8.65;;;3.72;;
18449;SDS011;9354;50.194;7.690;2022-07-23T12:56:03;3.97;;;2.85;;
18449;SDS011;9354;50.194;7.690;2022-07-23T12:58:45;4.57;;;3.30;;
18449;SDS011;9354;50.194;7.690;2022-07-23T13:01:23;5.53;;;3.58;;
18449;SDS011;9354;50.194;7.690;2022-07-23T13:03:56;5.10;;;3.42;;
18449;SDS011;9354;50.194;7.690;2022-07-23T13:06:25;6.07;;;3.45;;
18449;SDS011;9354;50.194;7.690;2022-07-23T13:08:54;4.43;;;3.25;;
18449;SDS011;9354;50.194;7.690;2022-07-23T13:11:22;7.90;;;3.90;;
18449;SDS011;9354;50.194;7.690;2022-07-23T13:13:50;5.75;;;3.30;;
18449;SDS011;9354;50.194;7.690;2022-07-23T13:16:18;5.85;;;3.60;;
18449;SDS011;9354;50.194;7.690;2022-07-23T13:18:45;5.05;;;3.35;;
18449;SDS011;9354;50.194;7.690;2022-07-23T13:21:13;8.90;;;3.65;;
18449;SDS011;9354;50.194;7.690;2022-07-23T13:23:40;13.98;;;3.55;;
18449;SDS011;9354;50.194;7.690;2022-07-23T13:26:10;4.43;;;3.05;;
18449;SDS011;9354;50.194;7.690;2022-07-23T13:28:37;4.65;;;2.97;;
18449;SDS011;9354;50.194;7.690;2022-07-23T13:31:05;5.68;;;3.63;;
18449;SDS011;9354;50.194;7.690;2022-07-23T13:33:33;10.57;;;3.60;;
18449;SDS011;9354;50.194;7.690;2022-07-23T13:36:00;5.40;;;3.55;;
18449;SDS011;9354;50.194;7.690;2022-07-23T13:38:28;5.60;;;3.33;;
18449;SDS011;9354;50.194;7.690;2022-07-23T13:40:55;6.18;;;3.47;;
18449;SDS011;9354;50.194;7.690;2022-07-23T13:43:24;5.45;;;3.53;;
18449;SDS011;9354;50.194;7.690;2022-07-23T13:45:52;5.30;;;3.53;;
18449;SDS011;9354;50.194;7.690;2022-07-23T13:48:20;4.85;;;3.35;;
18449;SDS011;9354;50.194;7.690;2022-07-23T13:50:48;5.10;;;3.38;;
18449;SDS011;9354;50.194;7.690;2022-07-23T13:53:20;9.30;;;3.47;;
18449;SDS011;9354;50.194;7.690;2022-07-23T13:55:49;4.35;;;3.30;;
18449;SDS011;9354;50.194;7.690;2022-07-23T13:58:18;4.22;;;3.33;;
18449;SDS011;9354;50.194;7.690;2022-07-23T14:00:49;5.63;;;3.40;;
18449;SDS011;9354;50.194;7.690;2022-07-23T14:03:18;8.35;;;3.67;;
18449;SDS011;9354;50.194;7.690;2022-07-23T14:05:48;6.18;;;3.35;;
18449;SDS011;9354;50.194;7.690;2022-07-23T14:08:15;6.13;;;3.42;;
18449;SDS011;9354;50.194;7.690;2022-07-23T14:10:43;7.07;;;3.60;;
18449;SDS011;9354;50.194;7.690;2022-07-23T14:13:10;5.47;;;3.63;;
18449;SDS011;9354;50.194;7.690;2022-07-23T14:15:38;6.45;;;3.47;;
18449;SDS011;9354;50.194;7.690;2022-07-23T14:18:07;10.13;;;3.47;;
18449;SDS011;9354;50.194;7.690;2022-07-23T14:20:34;5.55;;;2.97;;
18449;SDS011;9354;50.194;7.690;2022-07-23T14:23:02;5.35;;;3.30;;
18449;SDS011;9354;50.194;7.690;2022-07-23T14:25:29;5.57;;;3.10;;
18449;SDS011;9354;50.194;7.690;2022-07-23T14:27:57;6.22;;;3.30;;
18449;SDS011;9354;50.194;7.690;2022-07-23T14:30:24;4.28;;;3.20;;
18449;SDS011;9354;50.194;7.690;2022-07-23T14:32:52;11.68;;;3.50;;
18449;SDS011;9354;50.194;7.690;2022-07-23T14:35:21;5.65;;;3.50;;
18449;SDS011;9354;50.194;7.690;2022-07-23T14:37:49;4.40;;;2.97;;
18449;SDS011;9354;50.194;7.690;2022-07-23T14:40:16;5.32;;;3.80;;
18449;SDS011;9354;50.194;7.690;2022-07-23T14:42:44;7.53;;;3.33;;
18449;SDS011;9354;50.194;7.690;2022-07-23T14:45:11;8.13;;;3.25;;
18449;SDS011;9354;50.194;7.690;2022-07-23T14:47:38;4.13;;;3.08;;
18449;SDS011;9354;50.194;7.690;2022-07-23T14:50:06;5.53;;;3.33;;
18449;SDS011;9354;50.194;7.690;2022-07-23T14:52:35;7.97;;;3.55;;
18449;SDS011;9354;50.194;7.690;2022-07-23T14:55:03;5.25;;;3.45;;
18449;SDS011;9354;50.194;7.690;2022-07-23T14:57:31;4.97;;;3.60;;
18449;SDS011;9354;50.194;7.690;2022-07-23T14:59:58;5.03;;;3.70;;
18449;SDS011;9354;50.194;7.690;2022-07-23T15:02:26;5.45;;;3.33;;
18449;SDS011;9354;50.194;7.690;2022-07-23T15:04:54;7.95;;;3.75;;
18449;SDS011;9354;50.194;7.690;2022-07-23T15:07:23;6.45;;;3.50;;